sensor_id;sensor_type;location;lat;lon;timestamp;temperature;humidity
2226;DHT22;1119;48.288;8.726;2022-12-29T00:00:21;8.60;99.40
2226;DHT22;1119;48.288;8.726;2022-12-29T00:02:48;8.60;99.20
2226;DHT22;1119;48.288;8.726;2022-12-29T00:05:16;8.60;99.10
2226;DHT22;1119;48.288;8.726;2022-12-29T00:07:43;8.60;99.00
2226;DHT22;1119;48.288;8.726;2022-12-29T00:10:10;8.70;98.90
2226;DHT22;1119;48.288;8.726;2022-12-29T00:12:37;8.70;98.70
2226;DHT22;1119;48.288;8.726;2022-12-29T00:15:24;8.70;98.80
2226;DHT22;1119;48.288;8.726;2022-12-29T00:18:03;8.70;98.70
2226;DHT22;1119;48.288;8.726;2022-12-29T00:20:33;8.70;98.70
2226;DHT22;1119;48.288;8.726;2022-12-29T00:23:19;8.70;98.70
2226;DHT22;1119;48.288;8.726;2022-12-29T00:26:11;8.60;98.70
2226;DHT22;1119;48.288;8.726;2022-12-29T00:28:57;8.60;98.70
2226;DHT22;1119;48.288;8.726;2022-12-29T00:31:43;8.60;98.60
2226;DHT22;1119;48.288;8.726;2022-12-29T00:34:28;8.60;98.60
2226;DHT22;1119;48.288;8.726;2022-12-29T00:37:13;8.60;98.50
2226;DHT22;1119;48.288;8.726;2022-12-29T00:39:40;8.60;98.60
2226;DHT22;1119;48.288;8.726;2022-12-29T00:42:25;8.60;98.50
2226;DHT22;1119;48.288;8.726;2022-12-29T00:45:10;8.60;98.50
2226;DHT22;1119;48.288;8.726;2022-12-29T00:47:39;8.60;98.40
2226;DHT22;1119;48.288;8.726;2022-12-29T00:50:07;8.60;98.40
2226;DHT22;1119;48.288;8.726;2022-12-29T00:52:33;8.60;98.20
2226;DHT22;1119;48.288;8.726;2022-12-29T00:55:01;8.60;98.10
2226;DHT22;1119;48.288;8.726;2022-12-29T00:57:28;8.70;98.00
2226;DHT22;1119;48.288;8.726;2022-12-29T00:59:55;8.70;98.00
2226;DHT22;1119;48.288;8.726;2022-12-29T01:02:22;8.70;98.00
2226;DHT22;1119;48.288;8.726;2022-12-29T01:04:51;8.70;98.00
2226;DHT22;1119;48.288;8.726;2022-12-29T01:07:18;8.80;97.80
2226;DHT22;1119;48.288;8.726;2022-12-29T01:09:45;8.80;97.70
2226;DHT22;1119;48.288;8.726;2022-12-29T01:12:32;8.80;97.60
2226;DHT22;1119;48.288;8.726;2022-12-29T01:15:12;8.90;97.40
2226;DHT22;1119;48.288;8.726;2022-12-29T01:17:41;8.90;97.40
2226;DHT22;1119;48.288;8.726;2022-12-29T01:20:11;9.00;97.40
2226;DHT22;1119;48.288;8.726;2022-12-29T01:22:39;9.00;97.30
2226;DHT22;1119;48.288;8.726;2022-12-29T01:25:08;9.00;97.40
2226;DHT22;1119;48.288;8.726;2022-12-29T01:27:37;8.90;97.30
2226;DHT22;1119;48.288;8.726;2022-12-29T01:30:06;8.90;97.20
2226;DHT22;1119;48.288;8.726;2022-12-29T01:32:34;9.00;97.20
2226;DHT22;1119;48.288;8.726;2022-12-29T01:35:02;9.00;97.00
2226;DHT22;1119;48.288;8.726;2022-12-29T01:37:31;9.00;96.90
2226;DHT22;1119;48.288;8.726;2022-12-29T01:39:58;9.10;96.80
2226;DHT22;1119;48.288;8.726;2022-12-29T01:42:25;9.20;96.70
2226;DHT22;1119;48.288;8.726;2022-12-29T01:44:55;9.20;96.50
2226;DHT22;1119;48.288;8.726;2022-12-29T01:47:31;9.20;96.30
2226;DHT22;1119;48.288;8.726;2022-12-29T01:50:06;9.20;96.20
2226;DHT22;1119;48.288;8.726;2022-12-29T01:52:38;9.30;96.20
2226;DHT22;1119;48.288;8.726;2022-12-29T01:55:09;9.30;96.20
2226;DHT22;1119;48.288;8.726;2022-12-29T01:57:40;9.30;96.30
2226;DHT22;1119;48.288;8.726;2022-12-29T02:00:13;9.20;96.30
2226;DHT22;1119;48.288;8.726;2022-12-29T02:02:42;9.20;96.20
2226;DHT22;1119;48.288;8.726;2022-12-29T02:05:27;9.20;96.20
2226;DHT22;1119;48.288;8.726;2022-12-29T02:07:57;9.10;96.20
2226;DHT22;1119;48.288;8.726;2022-12-29T02:10:26;9.10;96.00
2226;DHT22;1119;48.288;8.726;2022-12-29T02:12:56;9.10;96.00
2226;DHT22;1119;48.288;8.726;2022-12-29T02:15:34;9.10;96.10
2226;DHT22;1119;48.288;8.726;2022-12-29T02:18:18;9.10;96.00
2226;DHT22;1119;48.288;8.726;2022-12-29T02:27:54;9.00;95.80
2226;DHT22;1119;48.288;8.726;2022-12-29T02:30:40;9.00;95.70
2226;DHT22;1119;48.288;8.726;2022-12-29T02:33:29;9.00;95.70
2226;DHT22;1119;48.288;8.726;2022-12-29T02:36:07;9.00;95.60
2226;DHT22;1119;48.288;8.726;2022-12-29T02:38:49;9.00;95.60
2226;DHT22;1119;48.288;8.726;2022-12-29T02:41:21;9.00;95.70
2226;DHT22;1119;48.288;8.726;2022-12-29T02:43:54;9.00;95.60
2226;DHT22;1119;48.288;8.726;2022-12-29T02:46:30;9.00;95.60
2226;DHT22;1119;48.288;8.726;2022-12-29T02:49:06;9.00;95.50
2226;DHT22;1119;48.288;8.726;2022-12-29T02:51:44;9.00;95.60
2226;DHT22;1119;48.288;8.726;2022-12-29T02:54:19;9.00;95.70
2226;DHT22;1119;48.288;8.726;2022-12-29T02:57:10;9.00;95.70
2226;DHT22;1119;48.288;8.726;2022-12-29T02:59:39;9.00;95.80
2226;DHT22;1119;48.288;8.726;2022-12-29T03:02:39;9.00;95.80
2226;DHT22;1119;48.288;8.726;2022-12-29T03:05:42;9.00;95.80
2226;DHT22;1119;48.288;8.726;2022-12-29T03:08:28;9.00;95.80
2226;DHT22;1119;48.288;8.726;2022-12-29T03:11:04;9.00;95.90
2226;DHT22;1119;48.288;8.726;2022-12-29T03:13:56;9.00;96.00
2226;DHT22;1119;48.288;8.726;2022-12-29T03:16:45;8.90;96.20
2226;DHT22;1119;48.288;8.726;2022-12-29T03:19:19;8.90;96.30
2226;DHT22;1119;48.288;8.726;2022-12-29T03:21:53;8.80;96.60
2226;DHT22;1119;48.288;8.726;2022-12-29T03:24:46;8.80;96.40
2226;DHT22;1119;48.288;8.726;2022-12-29T03:27:20;8.80;96.40
2226;DHT22;1119;48.288;8.726;2022-12-29T03:29:58;8.70;96.50
2226;DHT22;1119;48.288;8.726;2022-12-29T03:32:32;8.60;96.50
2226;DHT22;1119;48.288;8.726;2022-12-29T03:35:04;8.50;96.60
2226;DHT22;1119;48.288;8.726;2022-12-29T03:37:36;8.50;96.80
2226;DHT22;1119;48.288;8.726;2022-12-29T03:40:07;8.40;96.90
2226;DHT22;1119;48.288;8.726;2022-12-29T03:42:36;8.50;97.00
2226;DHT22;1119;48.288;8.726;2022-12-29T03:45:05;8.40;97.00
2226;DHT22;1119;48.288;8.726;2022-12-29T03:47:34;8.40;97.10
2226;DHT22;1119;48.288;8.726;2022-12-29T03:50:03;8.40;97.50
2226;DHT22;1119;48.288;8.726;2022-12-29T03:52:35;8.40;97.20
2226;DHT22;1119;48.288;8.726;2022-12-29T03:55:04;8.50;97.30
2226;DHT22;1119;48.288;8.726;2022-12-29T03:57:32;8.40;97.30
2226;DHT22;1119;48.288;8.726;2022-12-29T04:00:05;8.40;97.40
2226;DHT22;1119;48.288;8.726;2022-12-29T04:06:54;8.40;97.60
2226;DHT22;1119;48.288;8.726;2022-12-29T04:10:44;8.40;97.60
2226;DHT22;1119;48.288;8.726;2022-12-29T04:17:29;8.50;97.40
2226;DHT22;1119;48.288;8.726;2022-12-29T04:28:07;8.50;97.20
2226;DHT22;1119;48.288;8.726;2022-12-29T04:30:50;8.60;97.40
2226;DHT22;1119;48.288;8.726;2022-12-29T04:37:48;8.60;97.30
2226;DHT22;1119;48.288;8.726;2022-12-29T04:40:16;8.50;97.20
2226;DHT22;1119;48.288;8.726;2022-12-29T04:42:44;8.50;97.30
2226;DHT22;1119;48.288;8.726;2022-12-29T04:45:12;8.40;97.30
2226;DHT22;1119;48.288;8.726;2022-12-29T04:47:51;8.40;97.40
2226;DHT22;1119;48.288;8.726;2022-12-29T04:54:12;8.50;97.50
2226;DHT22;1119;48.288;8.726;2022-12-29T04:56:39;8.50;97.60
2226;DHT22;1119;48.288;8.726;2022-12-29T04:59:07;8.50;97.50
2226;DHT22;1119;48.288;8.726;2022-12-29T05:01:36;8.60;97.60
2226;DHT22;1119;48.288;8.726;2022-12-29T05:04:04;8.70;97.60
2226;DHT22;1119;48.288;8.726;2022-12-29T05:06:32;8.80;97.50
2226;DHT22;1119;48.288;8.726;2022-12-29T05:09:00;8.90;97.40
2226;DHT22;1119;48.288;8.726;2022-12-29T05:11:27;9.00;97.30
2226;DHT22;1119;48.288;8.726;2022-12-29T05:13:57;9.00;97.20
2226;DHT22;1119;48.288;8.726;2022-12-29T05:16:24;9.10;97.20
2226;DHT22;1119;48.288;8.726;2022-12-29T05:18:53;9.10;97.10
2226;DHT22;1119;48.288;8.726;2022-12-29T05:26:01;9.20;97.00
2226;DHT22;1119;48.288;8.726;2022-12-29T05:33:22;9.20;97.20
2226;DHT22;1119;48.288;8.726;2022-12-29T05:35:51;9.20;97.40
2226;DHT22;1119;48.288;8.726;2022-12-29T05:38:20;9.20;97.50
2226;DHT22;1119;48.288;8.726;2022-12-29T05:40:47;9.30;97.50
2226;DHT22;1119;48.288;8.726;2022-12-29T05:43:35;9.30;97.60
2226;DHT22;1119;48.288;8.726;2022-12-29T05:46:21;9.30;97.60
2226;DHT22;1119;48.288;8.726;2022-12-29T05:49:24;9.40;97.60
2226;DHT22;1119;48.288;8.726;2022-12-29T05:52:21;9.40;97.60
2226;DHT22;1119;48.288;8.726;2022-12-29T05:54:48;9.50;97.70
2226;DHT22;1119;48.288;8.726;2022-12-29T05:57:19;9.50;97.60
2226;DHT22;1119;48.288;8.726;2022-12-29T05:59:54;9.60;97.70
2226;DHT22;1119;48.288;8.726;2022-12-29T06:06:46;9.60;97.70
2226;DHT22;1119;48.288;8.726;2022-12-29T06:18:16;9.50;98.30
2226;DHT22;1119;48.288;8.726;2022-12-29T06:20:44;9.50;98.50
2226;DHT22;1119;48.288;8.726;2022-12-29T06:23:11;9.60;98.50
2226;DHT22;1119;48.288;8.726;2022-12-29T06:30:04;9.60;98.70
2226;DHT22;1119;48.288;8.726;2022-12-29T06:54:17;9.70;98.60
2226;DHT22;1119;48.288;8.726;2022-12-29T07:04:14;9.70;98.40
2226;DHT22;1119;48.288;8.726;2022-12-29T07:06:41;9.70;98.50
2226;DHT22;1119;48.288;8.726;2022-12-29T07:13:26;9.70;98.70
2226;DHT22;1119;48.288;8.726;2022-12-29T07:20:12;9.70;98.80
2226;DHT22;1119;48.288;8.726;2022-12-29T07:38:32;9.70;98.20
2226;DHT22;1119;48.288;8.726;2022-12-29T07:45:25;9.80;97.70
2226;DHT22;1119;48.288;8.726;2022-12-29T07:48:13;9.90;97.30
2226;DHT22;1119;48.288;8.726;2022-12-29T07:50:41;9.90;97.10
2226;DHT22;1119;48.288;8.726;2022-12-29T08:01:29;10.00;96.10
2226;DHT22;1119;48.288;8.726;2022-12-29T08:03:58;10.10;96.10
2226;DHT22;1119;48.288;8.726;2022-12-29T08:06:25;10.10;96.00
2226;DHT22;1119;48.288;8.726;2022-12-29T08:08:52;10.10;95.90
2226;DHT22;1119;48.288;8.726;2022-12-29T08:11:21;10.10;96.10
2226;DHT22;1119;48.288;8.726;2022-12-29T08:13:49;10.20;95.80
2226;DHT22;1119;48.288;8.726;2022-12-29T08:16:17;10.20;95.70
2226;DHT22;1119;48.288;8.726;2022-12-29T08:18:44;10.20;95.60
2226;DHT22;1119;48.288;8.726;2022-12-29T08:21:13;10.30;95.50
2226;DHT22;1119;48.288;8.726;2022-12-29T08:23:40;10.30;95.70
2226;DHT22;1119;48.288;8.726;2022-12-29T08:26:08;10.30;95.70
2226;DHT22;1119;48.288;8.726;2022-12-29T08:28:35;10.30;95.70
2226;DHT22;1119;48.288;8.726;2022-12-29T08:31:02;10.30;95.80
2226;DHT22;1119;48.288;8.726;2022-12-29T08:33:30;10.30;96.00
2226;DHT22;1119;48.288;8.726;2022-12-29T08:35:59;10.30;96.30
2226;DHT22;1119;48.288;8.726;2022-12-29T08:38:29;10.30;96.40
2226;DHT22;1119;48.288;8.726;2022-12-29T08:40:57;10.20;96.70
2226;DHT22;1119;48.288;8.726;2022-12-29T08:43:26;10.20;97.40
2226;DHT22;1119;48.288;8.726;2022-12-29T08:45:54;10.10;98.10
2226;DHT22;1119;48.288;8.726;2022-12-29T08:48:21;10.00;98.80
2226;DHT22;1119;48.288;8.726;2022-12-29T08:50:49;9.90;99.60
2226;DHT22;1119;48.288;8.726;2022-12-29T08:53:16;9.80;99.80
2226;DHT22;1119;48.288;8.726;2022-12-29T08:55:47;9.70;99.90
2226;DHT22;1119;48.288;8.726;2022-12-29T08:58:15;9.70;99.90
2226;DHT22;1119;48.288;8.726;2022-12-29T09:00:44;9.60;99.90
2226;DHT22;1119;48.288;8.726;2022-12-29T09:03:11;9.60;99.90
2226;DHT22;1119;48.288;8.726;2022-12-29T09:05:38;9.60;99.90
2226;DHT22;1119;48.288;8.726;2022-12-29T09:08:05;9.60;99.90
2226;DHT22;1119;48.288;8.726;2022-12-29T09:10:32;9.60;99.90
2226;DHT22;1119;48.288;8.726;2022-12-29T09:13:01;9.60;99.90
2226;DHT22;1119;48.288;8.726;2022-12-29T09:15:28;9.50;99.90
2226;DHT22;1119;48.288;8.726;2022-12-29T09:17:55;9.50;99.90
2226;DHT22;1119;48.288;8.726;2022-12-29T09:20:22;9.50;99.90
2226;DHT22;1119;48.288;8.726;2022-12-29T09:22:50;9.50;99.90
2226;DHT22;1119;48.288;8.726;2022-12-29T09:25:17;9.50;99.90
2226;DHT22;1119;48.288;8.726;2022-12-29T09:27:45;9.50;99.90
2226;DHT22;1119;48.288;8.726;2022-12-29T09:30:15;9.50;99.90
2226;DHT22;1119;48.288;8.726;2022-12-29T09:32:42;9.50;99.90
2226;DHT22;1119;48.288;8.726;2022-12-29T09:35:09;9.50;99.90
2226;DHT22;1119;48.288;8.726;2022-12-29T09:37:36;9.60;99.90
2226;DHT22;1119;48.288;8.726;2022-12-29T09:40:05;9.70;99.90
2226;DHT22;1119;48.288;8.726;2022-12-29T09:42:38;9.70;99.90
2226;DHT22;1119;48.288;8.726;2022-12-29T09:45:11;9.70;99.90
2226;DHT22;1119;48.288;8.726;2022-12-29T09:47:44;9.70;99.90
2226;DHT22;1119;48.288;8.726;2022-12-29T09:50:22;9.80;99.90
2226;DHT22;1119;48.288;8.726;2022-12-29T09:52:55;9.80;99.90
2226;DHT22;1119;48.288;8.726;2022-12-29T09:55:30;9.80;99.90
2226;DHT22;1119;48.288;8.726;2022-12-29T09:58:04;9.90;99.90
2226;DHT22;1119;48.288;8.726;2022-12-29T10:00:41;9.90;99.90
2226;DHT22;1119;48.288;8.726;2022-12-29T10:03:16;9.90;99.90
2226;DHT22;1119;48.288;8.726;2022-12-29T10:05:49;9.90;99.90
2226;DHT22;1119;48.288;8.726;2022-12-29T10:08:29;10.00;99.90
2226;DHT22;1119;48.288;8.726;2022-12-29T10:11:10;10.00;99.90
2226;DHT22;1119;48.288;8.726;2022-12-29T10:14:02;10.00;99.90
2226;DHT22;1119;48.288;8.726;2022-12-29T10:16:43;10.00;99.90
2226;DHT22;1119;48.288;8.726;2022-12-29T10:19:33;10.00;99.90
2226;DHT22;1119;48.288;8.726;2022-12-29T10:22:16;10.00;99.90
2226;DHT22;1119;48.288;8.726;2022-12-29T10:24:51;10.10;99.90
2226;DHT22;1119;48.288;8.726;2022-12-29T10:27:19;10.10;99.90
2226;DHT22;1119;48.288;8.726;2022-12-29T10:29:49;10.10;99.90
2226;DHT22;1119;48.288;8.726;2022-12-29T10:32:27;10.00;99.90
2226;DHT22;1119;48.288;8.726;2022-12-29T10:35:00;10.00;99.90
2226;DHT22;1119;48.288;8.726;2022-12-29T10:37:37;10.00;99.90
2226;DHT22;1119;48.288;8.726;2022-12-29T10:40:22;10.00;99.90
2226;DHT22;1119;48.288;8.726;2022-12-29T10:42:53;9.90;99.90
2226;DHT22;1119;48.288;8.726;2022-12-29T10:45:24;9.90;99.90
2226;DHT22;1119;48.288;8.726;2022-12-29T10:48:00;9.90;99.90
2226;DHT22;1119;48.288;8.726;2022-12-29T10:50:28;9.80;99.90
2226;DHT22;1119;48.288;8.726;2022-12-29T10:52:58;9.80;99.90
2226;DHT22;1119;48.288;8.726;2022-12-29T10:55:30;9.70;99.90
2226;DHT22;1119;48.288;8.726;2022-12-29T10:58:02;9.70;99.90
2226;DHT22;1119;48.288;8.726;2022-12-29T11:00:32;9.60;99.90
2226;DHT22;1119;48.288;8.726;2022-12-29T11:03:16;9.60;99.90
2226;DHT22;1119;48.288;8.726;2022-12-29T11:06:07;9.50;99.90
2226;DHT22;1119;48.288;8.726;2022-12-29T11:08:38;9.40;99.90
2226;DHT22;1119;48.288;8.726;2022-12-29T11:11:09;9.40;99.90
2226;DHT22;1119;48.288;8.726;2022-12-29T11:13:48;9.40;99.90
2226;DHT22;1119;48.288;8.726;2022-12-29T11:16:27;9.40;99.90
2226;DHT22;1119;48.288;8.726;2022-12-29T11:18:58;9.40;99.90
2226;DHT22;1119;48.288;8.726;2022-12-29T11:21:32;9.40;99.90
2226;DHT22;1119;48.288;8.726;2022-12-29T11:24:01;9.40;99.90
2226;DHT22;1119;48.288;8.726;2022-12-29T11:26:32;9.40;99.90
2226;DHT22;1119;48.288;8.726;2022-12-29T11:29:20;9.40;99.90
2226;DHT22;1119;48.288;8.726;2022-12-29T11:31:50;9.40;99.90
2226;DHT22;1119;48.288;8.726;2022-12-29T11:34:23;9.40;99.90
2226;DHT22;1119;48.288;8.726;2022-12-29T11:36:53;9.50;99.90
2226;DHT22;1119;48.288;8.726;2022-12-29T11:39:38;9.50;99.90
2226;DHT22;1119;48.288;8.726;2022-12-29T11:42:14;9.50;99.90
2226;DHT22;1119;48.288;8.726;2022-12-29T11:44:44;9.50;99.90
2226;DHT22;1119;48.288;8.726;2022-12-29T11:47:21;9.50;99.90
2226;DHT22;1119;48.288;8.726;2022-12-29T11:49:57;9.50;99.90
2226;DHT22;1119;48.288;8.726;2022-12-29T11:52:29;9.40;99.90
2226;DHT22;1119;48.288;8.726;2022-12-29T11:55:03;9.40;99.90
2226;DHT22;1119;48.288;8.726;2022-12-29T11:57:33;9.40;99.90
2226;DHT22;1119;48.288;8.726;2022-12-29T12:00:06;9.50;99.90
2226;DHT22;1119;48.288;8.726;2022-12-29T12:02:45;9.50;99.90
2226;DHT22;1119;48.288;8.726;2022-12-29T12:05:24;9.50;99.90
2226;DHT22;1119;48.288;8.726;2022-12-29T12:08:02;9.60;99.90
2226;DHT22;1119;48.288;8.726;2022-12-29T12:10:34;9.60;99.90
2226;DHT22;1119;48.288;8.726;2022-12-29T12:13:11;9.70;99.90
2226;DHT22;1119;48.288;8.726;2022-12-29T12:15:49;9.70;99.90
2226;DHT22;1119;48.288;8.726;2022-12-29T12:18:31;9.70;99.90
2226;DHT22;1119;48.288;8.726;2022-12-29T12:21:10;9.70;99.90
2226;DHT22;1119;48.288;8.726;2022-12-29T12:23:50;9.70;99.90
2226;DHT22;1119;48.288;8.726;2022-12-29T12:26:30;9.70;99.90
2226;DHT22;1119;48.288;8.726;2022-12-29T12:29:04;9.80;99.90
2226;DHT22;1119;48.288;8.726;2022-12-29T12:31:44;9.80;99.90
2226;DHT22;1119;48.288;8.726;2022-12-29T12:34:17;9.90;99.90
2226;DHT22;1119;48.288;8.726;2022-12-29T12:37:08;9.90;99.90
2226;DHT22;1119;48.288;8.726;2022-12-29T12:43:41;10.10;99.90
2226;DHT22;1119;48.288;8.726;2022-12-29T12:46:25;10.10;99.90
2226;DHT22;1119;48.288;8.726;2022-12-29T12:49:23;10.20;99.90
2226;DHT22;1119;48.288;8.726;2022-12-29T12:52:07;10.20;99.90
2226;DHT22;1119;48.288;8.726;2022-12-29T12:54:50;10.30;99.90
2226;DHT22;1119;48.288;8.726;2022-12-29T12:57:39;10.20;99.90
2226;DHT22;1119;48.288;8.726;2022-12-29T13:00:12;10.20;99.90
2226;DHT22;1119;48.288;8.726;2022-12-29T13:02:51;10.20;99.90
2226;DHT22;1119;48.288;8.726;2022-12-29T13:05:57;10.30;99.90
2226;DHT22;1119;48.288;8.726;2022-12-29T13:08:47;10.30;99.90
2226;DHT22;1119;48.288;8.726;2022-12-29T13:11:25;10.40;99.90
2226;DHT22;1119;48.288;8.726;2022-12-29T13:14:09;10.40;99.90
2226;DHT22;1119;48.288;8.726;2022-12-29T13:16:50;10.40;99.90
2226;DHT22;1119;48.288;8.726;2022-12-29T13:19:26;10.50;99.90
2226;DHT22;1119;48.288;8.726;2022-12-29T13:22:04;10.50;99.90
2226;DHT22;1119;48.288;8.726;2022-12-29T13:24:46;10.50;99.90
2226;DHT22;1119;48.288;8.726;2022-12-29T13:27:23;10.50;99.90
2226;DHT22;1119;48.288;8.726;2022-12-29T13:30:01;10.50;99.90
2226;DHT22;1119;48.288;8.726;2022-12-29T13:32:48;10.50;99.90
2226;DHT22;1119;48.288;8.726;2022-12-29T13:35:44;10.50;99.90
2226;DHT22;1119;48.288;8.726;2022-12-29T13:38:23;10.50;99.90
2226;DHT22;1119;48.288;8.726;2022-12-29T13:40:56;10.50;99.90
2226;DHT22;1119;48.288;8.726;2022-12-29T13:43:29;10.60;99.90
2226;DHT22;1119;48.288;8.726;2022-12-29T13:46:05;10.40;99.90
2226;DHT22;1119;48.288;8.726;2022-12-29T13:48:39;10.80;99.90
2226;DHT22;1119;48.288;8.726;2022-12-29T13:51:09;10.60;99.90
2226;DHT22;1119;48.288;8.726;2022-12-29T13:53:46;10.60;99.90
2226;DHT22;1119;48.288;8.726;2022-12-29T13:56:26;10.70;99.90
2226;DHT22;1119;48.288;8.726;2022-12-29T13:59:04;10.70;99.90
2226;DHT22;1119;48.288;8.726;2022-12-29T14:01:35;10.80;99.90
2226;DHT22;1119;48.288;8.726;2022-12-29T14:04:11;10.70;99.90
2226;DHT22;1119;48.288;8.726;2022-12-29T14:06:40;10.80;99.90
2226;DHT22;1119;48.288;8.726;2022-12-29T14:09:40;10.80;99.90
2226;DHT22;1119;48.288;8.726;2022-12-29T14:12:24;10.80;99.90
2226;DHT22;1119;48.288;8.726;2022-12-29T14:15:22;10.80;99.90
2226;DHT22;1119;48.288;8.726;2022-12-29T14:18:10;10.80;99.90
2226;DHT22;1119;48.288;8.726;2022-12-29T14:20:49;10.80;99.90
2226;DHT22;1119;48.288;8.726;2022-12-29T14:23:36;10.80;99.90
2226;DHT22;1119;48.288;8.726;2022-12-29T14:26:33;10.80;99.90
2226;DHT22;1119;48.288;8.726;2022-12-29T14:29:45;10.70;99.90
2226;DHT22;1119;48.288;8.726;2022-12-29T14:32:36;10.70;99.90
2226;DHT22;1119;48.288;8.726;2022-12-29T14:38:16;10.70;99.90
2226;DHT22;1119;48.288;8.726;2022-12-29T14:41:25;10.80;99.90
2226;DHT22;1119;48.288;8.726;2022-12-29T14:44:00;10.70;99.90
2226;DHT22;1119;48.288;8.726;2022-12-29T14:46:46;10.80;99.90
2226;DHT22;1119;48.288;8.726;2022-12-29T14:49:18;10.80;99.90
2226;DHT22;1119;48.288;8.726;2022-12-29T14:51:50;10.80;99.90
2226;DHT22;1119;48.288;8.726;2022-12-29T14:54:41;10.70;99.90
2226;DHT22;1119;48.288;8.726;2022-12-29T14:57:21;10.70;99.90
2226;DHT22;1119;48.288;8.726;2022-12-29T14:59:54;10.70;99.90
2226;DHT22;1119;48.288;8.726;2022-12-29T15:02:34;10.70;99.90
2226;DHT22;1119;48.288;8.726;2022-12-29T15:05:24;10.60;99.90
2226;DHT22;1119;48.288;8.726;2022-12-29T15:07:57;10.60;99.90
2226;DHT22;1119;48.288;8.726;2022-12-29T15:10:25;10.60;99.90
2226;DHT22;1119;48.288;8.726;2022-12-29T15:13:00;10.10;99.90
2226;DHT22;1119;48.288;8.726;2022-12-29T15:15:36;10.60;99.90
2226;DHT22;1119;48.288;8.726;2022-12-29T15:18:14;10.60;99.90
2226;DHT22;1119;48.288;8.726;2022-12-29T15:20:51;10.60;99.90
2226;DHT22;1119;48.288;8.726;2022-12-29T15:23:21;10.50;99.90
2226;DHT22;1119;48.288;8.726;2022-12-29T15:25:54;10.50;99.90
2226;DHT22;1119;48.288;8.726;2022-12-29T15:28:22;10.50;99.90
2226;DHT22;1119;48.288;8.726;2022-12-29T15:30:52;10.60;99.90
2226;DHT22;1119;48.288;8.726;2022-12-29T15:33:24;10.40;99.90
2226;DHT22;1119;48.288;8.726;2022-12-29T15:35:55;10.40;99.90
2226;DHT22;1119;48.288;8.726;2022-12-29T15:38:26;10.40;99.90
2226;DHT22;1119;48.288;8.726;2022-12-29T15:40:57;10.40;99.90
2226;DHT22;1119;48.288;8.726;2022-12-29T15:43:40;10.30;99.90
2226;DHT22;1119;48.288;8.726;2022-12-29T15:46:12;10.30;99.90
2226;DHT22;1119;48.288;8.726;2022-12-29T15:48:41;10.20;99.90
2226;DHT22;1119;48.288;8.726;2022-12-29T15:51:16;10.20;99.90
2226;DHT22;1119;48.288;8.726;2022-12-29T15:53:47;10.20;99.90
2226;DHT22;1119;48.288;8.726;2022-12-29T15:56:15;10.10;99.90
2226;DHT22;1119;48.288;8.726;2022-12-29T15:58:44;10.10;99.90
2226;DHT22;1119;48.288;8.726;2022-12-29T16:01:18;10.10;99.90
2226;DHT22;1119;48.288;8.726;2022-12-29T16:03:48;10.00;99.90
2226;DHT22;1119;48.288;8.726;2022-12-29T16:06:27;10.00;99.90
2226;DHT22;1119;48.288;8.726;2022-12-29T16:08:58;10.00;99.90
2226;DHT22;1119;48.288;8.726;2022-12-29T16:11:32;10.00;99.90
2226;DHT22;1119;48.288;8.726;2022-12-29T16:14:05;10.00;99.90
2226;DHT22;1119;48.288;8.726;2022-12-29T16:16:36;10.00;99.90
2226;DHT22;1119;48.288;8.726;2022-12-29T16:19:11;9.90;99.90
2226;DHT22;1119;48.288;8.726;2022-12-29T16:21:41;10.00;99.90
2226;DHT22;1119;48.288;8.726;2022-12-29T16:24:13;10.20;99.90
2226;DHT22;1119;48.288;8.726;2022-12-29T16:26:48;10.00;99.90
2226;DHT22;1119;48.288;8.726;2022-12-29T16:29:18;9.90;99.90
2226;DHT22;1119;48.288;8.726;2022-12-29T16:31:52;9.90;99.90
2226;DHT22;1119;48.288;8.726;2022-12-29T16:34:29;9.90;99.90
2226;DHT22;1119;48.288;8.726;2022-12-29T16:37:27;9.80;99.90
2226;DHT22;1119;48.288;8.726;2022-12-29T16:39:56;9.90;99.90
2226;DHT22;1119;48.288;8.726;2022-12-29T16:42:43;9.90;99.90
2226;DHT22;1119;48.288;8.726;2022-12-29T16:48:47;10.00;99.90
2226;DHT22;1119;48.288;8.726;2022-12-29T16:51:21;9.90;99.90
2226;DHT22;1119;48.288;8.726;2022-12-29T16:53:55;10.00;99.90
2226;DHT22;1119;48.288;8.726;2022-12-29T16:56:25;10.00;99.90
2226;DHT22;1119;48.288;8.726;2022-12-29T16:59:00;10.00;99.90
2226;DHT22;1119;48.288;8.726;2022-12-29T17:01:29;10.00;99.90
2226;DHT22;1119;48.288;8.726;2022-12-29T17:03:58;9.90;99.90
2226;DHT22;1119;48.288;8.726;2022-12-29T17:06:29;10.00;99.90
2226;DHT22;1119;48.288;8.726;2022-12-29T17:08:57;9.90;99.90
2226;DHT22;1119;48.288;8.726;2022-12-29T17:11:28;9.90;99.90
2226;DHT22;1119;48.288;8.726;2022-12-29T17:14:41;9.70;99.90
2226;DHT22;1119;48.288;8.726;2022-12-29T17:17:13;9.80;99.90
2226;DHT22;1119;48.288;8.726;2022-12-29T17:19:45;9.80;99.90
2226;DHT22;1119;48.288;8.726;2022-12-29T17:22:21;9.80;99.90
2226;DHT22;1119;48.288;8.726;2022-12-29T17:24:51;9.80;99.90
2226;DHT22;1119;48.288;8.726;2022-12-29T17:27:22;9.80;99.90
2226;DHT22;1119;48.288;8.726;2022-12-29T17:29:53;9.80;99.90
2226;DHT22;1119;48.288;8.726;2022-12-29T17:32:22;9.80;99.90
2226;DHT22;1119;48.288;8.726;2022-12-29T17:34:50;9.70;99.90
2226;DHT22;1119;48.288;8.726;2022-12-29T17:37:29;9.70;99.90
2226;DHT22;1119;48.288;8.726;2022-12-29T17:39:59;9.70;99.90
2226;DHT22;1119;48.288;8.726;2022-12-29T17:42:26;9.70;99.90
2226;DHT22;1119;48.288;8.726;2022-12-29T17:44:53;9.60;99.90
2226;DHT22;1119;48.288;8.726;2022-12-29T17:47:21;9.60;99.90
2226;DHT22;1119;48.288;8.726;2022-12-29T17:49:48;9.50;99.90
2226;DHT22;1119;48.288;8.726;2022-12-29T17:52:16;9.60;99.90
2226;DHT22;1119;48.288;8.726;2022-12-29T17:54:48;9.50;99.90
2226;DHT22;1119;48.288;8.726;2022-12-29T17:57:19;9.50;99.90
2226;DHT22;1119;48.288;8.726;2022-12-29T17:59:47;9.60;99.90
2226;DHT22;1119;48.288;8.726;2022-12-29T18:02:25;9.50;99.90
2226;DHT22;1119;48.288;8.726;2022-12-29T18:04:54;9.50;99.90
2226;DHT22;1119;48.288;8.726;2022-12-29T18:07:22;9.50;99.90
2226;DHT22;1119;48.288;8.726;2022-12-29T18:09:51;9.40;99.90
2226;DHT22;1119;48.288;8.726;2022-12-29T18:12:30;9.50;99.90
2226;DHT22;1119;48.288;8.726;2022-12-29T18:15:00;9.50;99.90
2226;DHT22;1119;48.288;8.726;2022-12-29T18:17:28;9.20;99.90
2226;DHT22;1119;48.288;8.726;2022-12-29T18:19:55;9.50;99.90
2226;DHT22;1119;48.288;8.726;2022-12-29T18:22:23;9.40;99.90
2226;DHT22;1119;48.288;8.726;2022-12-29T18:24:55;9.50;99.90
2226;DHT22;1119;48.288;8.726;2022-12-29T18:27:22;9.30;99.90
2226;DHT22;1119;48.288;8.726;2022-12-29T18:29:49;9.40;99.90
2226;DHT22;1119;48.288;8.726;2022-12-29T18:32:17;9.40;99.90
2226;DHT22;1119;48.288;8.726;2022-12-29T18:34:46;9.50;99.90
2226;DHT22;1119;48.288;8.726;2022-12-29T18:37:14;9.40;99.90
2226;DHT22;1119;48.288;8.726;2022-12-29T18:39:41;9.50;99.90
2226;DHT22;1119;48.288;8.726;2022-12-29T18:42:15;9.40;99.90
2226;DHT22;1119;48.288;8.726;2022-12-29T18:44:44;9.30;99.90
2226;DHT22;1119;48.288;8.726;2022-12-29T18:47:11;9.80;99.90
2226;DHT22;1119;48.288;8.726;2022-12-29T18:49:38;9.40;99.90
2226;DHT22;1119;48.288;8.726;2022-12-29T18:52:07;9.40;99.90
2226;DHT22;1119;48.288;8.726;2022-12-29T18:54:37;9.40;99.90
2226;DHT22;1119;48.288;8.726;2022-12-29T18:57:05;10.00;99.90
2226;DHT22;1119;48.288;8.726;2022-12-29T18:59:34;9.40;99.90
2226;DHT22;1119;48.288;8.726;2022-12-29T19:02:01;9.30;99.90
2226;DHT22;1119;48.288;8.726;2022-12-29T19:04:28;9.30;99.90
2226;DHT22;1119;48.288;8.726;2022-12-29T19:06:55;9.30;99.90
2226;DHT22;1119;48.288;8.726;2022-12-29T19:09:24;9.60;99.90
2226;DHT22;1119;48.288;8.726;2022-12-29T19:11:52;9.30;99.90
2226;DHT22;1119;48.288;8.726;2022-12-29T19:14:19;9.30;99.90